Time;durP1;ratioP1;P1;durP2;ratioP2;P2;SDS_P1;SDS_P2;PMS_P1;PMS_P2;Temp;Humidity;BMP_temperature;BMP_pressure;BME280_temperature;BME280_humidity;BME280_pressure;Samples;Min_cycle;Max_cycle;Signal;HPM_P1;HPM_P2
2023/08/07 00:04:08;;;;;;;1.70;1.60;;;;;;;14.08;91.87;98329.81;220453;1254;141168;-67
2023/08/07 00:09:12;;;;;;;1.20;1.20;;;;;;;14.08;91.72;98326.44;219206;1254;140304;-67
2023/08/07 00:14:17;;;;;;;1.80;1.40;;;;;;;14.09;91.50;98317.91;219352;1255;140837;-67
2023/08/07 00:19:21;;;;;;;2.50;1.40;;;;;;;14.08;91.31;98309.70;219709;1254;139179;-67
2023/08/07 00:24:26;;;;;;;1.50;1.50;;;;;;;14.07;91.16;98308.89;218487;1254;139356;-66
2023/08/07 00:29:30;;;;;;;24.30;2.10;;;;;;;14.02;91.08;98312.73;219568;1254;139659;-66
2023/08/07 00:34:35;;;;;;;1.60;1.50;;;;;;;14.00;91.09;98309.77;219083;1253;140034;-66
2023/08/07 00:39:42;;;;;;;1.50;1.40;;;;;;;13.98;91.16;98312.85;218088;1254;140048;-68
2023/08/07 00:44:47;;;;;;;1.50;1.40;;;;;;;13.95;90.90;98309.77;218904;1255;139474;-67
2023/08/07 00:49:53;;;;;;;1.90;1.20;;;;;;;13.94;90.96;98305.30;218458;1257;139913;-69
2023/08/07 00:54:57;;;;;;;2.20;2.10;;;;;;;13.93;90.93;98306.77;218254;1254;140760;-67
2023/08/07 01:00:02;;;;;;;3.50;1.60;;;;;;;13.89;90.84;98304.84;218719;1254;141453;-67
2023/08/07 01:05:07;;;;;;;1.30;1.30;;;;;;;13.87;90.96;98297.41;218349;1254;139667;-67
2023/08/07 01:10:12;;;;;;;1.70;1.60;;;;;;;13.87;90.97;98294.67;219421;1254;141059;-67
2023/08/07 01:15:22;;;;;;;9.40;2.20;;;;;;;13.87;91.15;98294.79;218759;1254;139633;-67
2023/08/07 01:20:28;;;;;;;2.00;1.80;;;;;;;13.88;91.12;98294.30;219990;1254;139922;-68
2023/08/07 01:25:35;;;;;;;2.30;2.20;;;;;;;13.83;91.27;98290.66;219029;1254;140545;-70
2023/08/07 01:30:50;;;;;;;2.00;1.90;;;;;;;13.78;91.09;98284.63;218089;1254;139969;-67
2023/08/07 01:35:58;;;;;;;1.60;1.50;;;;;;;13.77;91.25;98289.09;218886;1256;139649;-68
2023/08/07 01:41:03;;;;;;;2.20;2.10;;;;;;;13.78;91.44;98282.37;219493;1254;140776;-69
2023/08/07 01:46:07;;;;;;;2.20;2.00;;;;;;;13.77;91.37;98273.33;218039;1257;139849;-67
2023/08/07 01:51:11;;;;;;;1.70;1.70;;;;;;;13.76;91.46;98265.76;220820;1254;141746;-67
2023/08/07 01:56:15;;;;;;;3.20;2.50;;;;;;;13.76;91.52;98269.45;220850;1254;139981;-69
2023/08/07 02:01:20;;;;;;;3.30;2.80;;;;;;;13.77;91.40;98260.85;218997;1258;141190;-68
2023/08/07 02:06:25;;;;;;;2.10;2.00;;;;;;;13.79;91.37;98258.04;220428;1256;139653;-68
2023/08/07 02:11:30;;;;;;;2.30;2.10;;;;;;;13.80;91.55;98263.86;220235;1254;140819;-67
2023/08/07 02:16:35;;;;;;;2.50;2.20;;;;;;;13.82;91.39;98277.39;218046;1254;141583;-67
2023/08/07 02:21:40;;;;;;;2.50;2.30;;;;;;;13.81;91.48;98282.74;219740;1254;140170;-68
2023/08/07 02:26:44;;;;;;;2.40;2.20;;;;;;;13.81;91.44;98294.65;218430;1254;141665;-68
2023/08/07 02:31:49;;;;;;;2.70;2.50;;;;;;;13.79;91.42;98305.77;218687;1254;140264;-69
2023/08/07 02:36:54;;;;;;;2.70;2.50;;;;;;;13.81;91.59;98309.97;219804;1254;140406;-70
2023/08/07 02:42:01;;;;;;;1.50;1.40;;;;;;;13.83;91.59;98312.25;217932;1254;142140;-69
2023/08/07 02:47:06;;;;;;;2.90;2.50;;;;;;;13.81;91.39;98310.88;218009;1257;141231;-69
2023/08/07 02:52:10;;;;;;;2.30;2.10;;;;;;;13.81;91.37;98308.36;217898;1258;140771;-69
2023/08/07 02:57:14;;;;;;;4.50;2.10;;;;;;;13.78;91.25;98310.28;218069;1254;140453;-69
2023/08/07 03:02:20;;;;;;;2.20;2.10;;;;;;;13.77;91.46;98313.71;217582;1254;1077115;-69
2023/08/07 03:07:26;;;;;;;3.70;2.50;;;;;;;13.76;91.24;98304.80;218030;1254;141052;-68
2023/08/07 03:12:37;;;;;;;4.40;2.40;;;;;;;13.73;91.25;98298.87;219394;1254;139716;-70
2023/08/07 03:17:41;;;;;;;2.60;2.40;;;;;;;13.71;91.16;98296.10;219217;1254;140003;-68
2023/08/07 03:22:45;;;;;;;2.30;2.10;;;;;;;13.73;91.22;98292.60;218583;1254;140436;-69
2023/08/07 03:27:52;;;;;;;2.20;2.10;;;;;;;13.72;91.17;98295.45;218873;1254;139754;-68
2023/08/07 03:32:57;;;;;;;3.10;2.60;;;;;;;13.72;91.13;98294.44;219328;1254;140467;-71
2023/08/07 03:38:03;;;;;;;3.40;3.10;;;;;;;13.69;90.95;98296.34;219154;1254;140385;-69
2023/08/07 03:43:09;;;;;;;2.70;2.50;;;;;;;13.68;90.90;98307.06;218299;1254;140024;-68
2023/08/07 03:48:14;;;;;;;2.20;2.00;;;;;;;13.68;90.90;98314.35;220575;1254;139938;-68
2023/08/07 03:53:20;;;;;;;2.60;2.20;;;;;;;13.72;90.93;98332.14;220911;1254;140109;-69
2023/08/07 03:58:25;;;;;;;3.00;2.70;;;;;;;13.74;90.64;98349.98;220814;1254;140307;-70
2023/08/07 04:03:33;;;;;;;4.30;1.80;;;;;;;13.76;90.49;98362.70;220807;1254;139980;-68
2023/08/07 04:08:37;;;;;;;1.70;1.60;;;;;;;13.79;90.37;98372.19;220443;1254;140416;-67
2023/08/07 04:13:41;;;;;;;2.90;2.70;;;;;;;13.80;90.33;98371.00;219150;1254;139655;-68
2023/08/07 04:18:47;;;;;;;3.00;2.00;;;;;;;13.86;90.32;98368.19;218589;1254;140540;-68
2023/08/07 04:23:53;;;;;;;3.50;2.50;;;;;;;13.86;90.26;98369.69;218443;1254;139935;-68
2023/08/07 04:28:58;;;;;;;2.60;2.40;;;;;;;13.87;90.12;98372.41;219437;1254;139912;-68
2023/08/07 04:34:05;;;;;;;6.10;3.30;;;;;;;13.88;89.95;98377.81;218293;1254;140154;-69
2023/08/07 04:39:11;;;;;;;4.70;3.10;;;;;;;13.91;89.75;98384.95;217818;1259;139881;-68
2023/08/07 04:44:17;;;;;;;3.40;2.50;;;;;;;13.92;89.85;98389.97;219925;1254;140188;-70
2023/08/07 04:49:22;;;;;;;3.60;3.00;;;;;;;14.02;90.11;98390.70;217938;1254;139389;-70
2023/08/07 04:54:26;;;;;;;5.80;3.70;;;;;;;14.04;89.87;98398.27;218507;1254;139865;-69
2023/08/07 04:59:32;;;;;;;9.70;3.50;;;;;;;14.07;89.73;98400.69;218561;1254;140237;-68
2023/08/07 05:04:36;;;;;;;3.40;3.00;;;;;;;14.26;89.98;98409.42;218138;1254;140898;-68
2023/08/07 05:09:40;;;;;;;3.10;2.80;;;;;;;14.37;89.61;98413.65;218553;1254;140210;-70
2023/08/07 05:14:46;;;;;;;3.10;2.80;;;;;;;14.54;89.23;98416.20;217892;1259;140566;-69
2023/08/07 05:19:52;;;;;;;3.20;2.90;;;;;;;14.77;88.71;98422.05;217943;1254;140359;-67
2023/08/07 05:24:56;;;;;;;3.40;3.10;;;;;;;15.12;88.25;98416.95;218595;1254;141737;-66
2023/08/07 05:30:01;;;;;;;5.00;3.00;;;;;;;15.66;87.23;98413.38;218050;1258;139674;-69
2023/08/07 05:35:07;;;;;;;2.10;1.90;;;;;;;15.93;86.20;98419.22;219910;1254;140249;-68
2023/08/07 05:40:11;;;;;;;2.00;1.80;;;;;;;16.01;85.26;98427.67;219991;1254;140495;-68
2023/08/07 05:45:17;;;;;;;2.30;2.10;;;;;;;17.26;83.63;98422.39;220850;1254;140344;-69
2023/08/07 05:50:22;;;;;;;3.90;2.50;;;;;;;17.80;82.65;98422.86;220730;1254;139583;-68
2023/08/07 05:55:27;;;;;;;2.10;2.00;;;;;;;18.42;81.45;98423.00;218490;1254;140627;-67
2023/08/07 06:00:32;;;;;;;1.90;1.80;;;;;;;18.76;80.18;98426.53;219745;1254;141659;-67
2023/08/07 06:05:37;;;;;;;2.30;2.00;;;;;;;19.12;78.94;98435.11;219489;1258;140440;-67
2023/08/07 06:10:42;;;;;;;2.70;1.60;;;;;;;19.09;77.59;98443.25;218632;1254;140117;-67
2023/08/07 06:15:47;;;;;;;2.40;1.60;;;;;;;18.87;77.22;98444.77;218647;1258;140807;-66
2023/08/07 06:20:51;;;;;;;2.10;1.40;;;;;;;18.80;76.86;98448.33;219290;1258;140702;-67
2023/08/07 06:25:56;;;;;;;2.00;1.90;;;;;;;18.87;76.27;98462.80;219208;1254;139741;-68
2023/08/07 06:31:07;;;;;;;1.70;1.40;;;;;;;18.82;75.43;98469.30;217748;1254;139552;-67
2023/08/07 06:36:13;;;;;;;1.70;1.60;;;;;;;18.48;74.75;98474.47;218247;1255;140265;-68
2023/08/07 06:41:17;;;;;;;2.40;1.90;;;;;;;18.38;74.93;98472.81;218763;1254;140813;-67
2023/08/07 06:46:26;;;;;;;1.30;1.20;;;;;;;18.59;75.25;98470.98;217937;1254;140186;-68
2023/08/07 06:51:34;;;;;;;2.10;1.90;;;;;;;18.69;74.24;98469.67;218632;1258;139822;-67
2023/08/07 06:56:42;;;;;;;1.70;1.30;;;;;;;18.98;73.65;98470.30;218233;1254;140122;-67
2023/08/07 07:01:46;;;;;;;1.20;1.10;;;;;;;19.62;73.17;98475.01;218253;1254;141016;-67
2023/08/07 07:06:51;;;;;;;1.70;1.50;;;;;;;19.95;71.96;98474.95;219620;1254;141419;-67
2023/08/07 07:11:56;;;;;;;1.20;1.20;;;;;;;20.71;70.98;98479.75;218103;1254;139562;-69
2023/08/07 07:17:00;;;;;;;2.20;1.00;;;;;;;21.54;70.34;98485.39;219056;1254;139867;-66
2023/08/07 07:22:05;;;;;;;1.10;1.00;;;;;;;22.09;69.27;98492.91;218191;1254;138975;-67
2023/08/07 07:27:10;;;;;;;1.30;1.00;;;;;;;22.47;68.43;98492.08;218145;1259;139212;-69
2023/08/07 07:32:14;;;;;;;1.40;1.30;;;;;;;22.80;67.16;98502.59;220648;1258;140598;-66
2023/08/07 07:37:18;;;;;;;3.60;1.30;;;;;;;22.83;65.81;98508.36;220680;1254;140252;-65
2023/08/07 07:42:26;;;;;;;1.70;1.40;;;;;;;23.08;65.35;98514.95;220762;1254;140848;-65
2023/08/07 07:47:30;;;;;;;1.10;1.00;;;;;;;22.91;64.04;98522.39;220856;1254;139428;-66
2023/08/07 07:52:35;;;;;;;1.10;1.00;;;;;;;22.84;64.02;98524.91;219770;1254;138897;-66
2023/08/07 07:57:40;;;;;;;1.10;0.90;;;;;;;22.93;63.68;98528.05;219504;1254;139048;-66
2023/08/07 08:02:46;;;;;;;4.80;1.20;;;;;;;23.10;62.94;98536.75;220681;1254;139962;-68
2023/08/07 08:07:50;;;;;;;16.50;1.50;;;;;;;23.41;62.95;98540.23;217809;1260;140612;-68
2023/08/07 08:12:56;;;;;;;0.90;0.90;;;;;;;23.75;61.83;98538.45;219677;1254;140358;-67
2023/08/07 08:18:01;;;;;;;3.50;0.80;;;;;;;23.70;60.15;98542.77;217698;1254;139755;-68
2023/08/07 08:23:05;;;;;;;1.30;1.00;;;;;;;23.03;59.87;98551.70;218916;1254;142081;-67
2023/08/07 08:28:10;;;;;;;1.20;1.10;;;;;;;23.12;60.13;98553.59;217889;1260;139219;-66
2023/08/07 08:33:14;;;;;;;1.30;1.00;;;;;;;23.32;59.52;98563.36;217710;1258;139162;-67
2023/08/07 08:38:19;;;;;;;1.20;0.80;;;;;;;23.55;59.19;98554.99;218439;1258;139984;-66
2023/08/07 08:43:25;;;;;;;4.60;1.00;;;;;;;23.63;58.56;98559.57;218623;1258;139596;-66
2023/08/07 08:48:38;;;;;;;3.10;1.10;;;;;;;23.65;58.17;98565.77;217974;1259;138984;-64
2023/08/07 08:53:42;;;;;;;1.10;1.10;;;;;;;23.40;57.65;98570.50;219323;1259;140135;-68
2023/08/07 08:58:46;;;;;;;3.40;1.10;;;;;;;23.39;57.83;98572.73;218011;1260;138797;-67
2023/08/07 09:03:53;;;;;;;1.40;1.10;;;;;;;23.30;57.47;98567.80;218802;1258;139490;-66
2023/08/07 09:09:00;;;;;;;1.10;1.10;;;;;;;22.89;57.03;98564.00;217892;1257;138583;-67
2023/08/07 09:14:05;;;;;;;1.70;1.50;;;;;;;22.76;57.15;98566.66;218892;1259;140385;-67
2023/08/07 09:19:10;;;;;;;1.10;1.00;;;;;;;22.63;57.35;98568.11;219405;1254;139559;-69
2023/08/07 09:24:18;;;;;;;1.50;1.40;;;;;;;22.59;57.09;98567.94;217772;1254;140297;-66
2023/08/07 09:29:27;;;;;;;5.20;1.70;;;;;;;22.49;56.93;98562.99;219207;1258;140446;-66
2023/08/07 09:34:33;;;;;;;1.70;1.60;;;;;;;22.25;56.61;98565.11;219294;1254;138907;-68
2023/08/07 09:39:38;;;;;;;2.50;1.40;;;;;;;22.16;56.98;98566.65;217992;1260;139071;-66
2023/08/07 09:44:44;;;;;;;1.90;1.70;;;;;;;22.66;57.34;98567.14;219984;1254;139501;-65
2023/08/07 09:49:55;;;;;;;1.00;1.00;;;;;;;23.13;56.51;98571.23;220765;1258;139288;-66
2023/08/07 09:55:03;;;;;;;1.70;1.00;;;;;;;23.21;55.58;98567.96;218465;1258;140193;-66
2023/08/07 10:00:11;;;;;;;1.80;1.30;;;;;;;22.92;54.67;98571.19;218026;1260;138965;-67
2023/08/07 10:05:17;;;;;;;1.60;1.50;;;;;;;22.99;55.42;98575.73;219455;1259;139784;-67
2023/08/07 10:10:25;;;;;;;1.80;1.70;;;;;;;23.30;55.33;98574.13;218883;1254;140009;-68
2023/08/07 10:15:31;;;;;;;4.60;1.50;;;;;;;23.36;54.92;98579.86;217693;1254;139000;-67
2023/08/07 10:20:42;;;;;;;2.30;1.50;;;;;;;23.52;54.66;98583.90;219133;1259;139069;-67
2023/08/07 10:25:50;;;;;;;1.70;1.60;;;;;;;23.87;54.85;98583.41;218922;1254;139703;-68
2023/08/07 10:31:00;;;;;;;1.80;1.40;;;;;;;24.12;54.58;98588.25;218176;1254;139805;-67
2023/08/07 10:36:11;;;;;;;1.40;1.20;;;;;;;23.74;53.37;98599.55;219098;1257;140285;-66
2023/08/07 10:41:19;;;;;;;6.00;2.00;;;;;;;23.26;53.67;98608.56;218143;1254;138944;-67
2023/08/07 10:46:25;;;;;;;1.50;1.30;;;;;;;23.60;53.97;98612.58;219140;1260;139374;-63
2023/08/07 10:51:31;;;;;;;1.30;1.20;;;;;;;23.80;53.63;98623.99;218165;1254;138723;-68
2023/08/07 10:56:40;;;;;;;1.40;1.30;;;;;;;23.74;53.31;98620.34;219708;1254;140362;-68
2023/08/07 11:01:52;;;;;;;4.50;1.30;;;;;;;23.62;52.73;98635.15;218787;1259;139446;-67
2023/08/07 11:06:57;;;;;;;1.60;1.00;;;;;;;23.40;52.49;98633.30;219289;1254;139878;-69
2023/08/07 11:12:04;;;;;;;4.30;1.30;;;;;;;23.06;52.42;98635.88;219795;1254;139920;-70
2023/08/07 11:17:10;;;;;;;1.50;1.40;;;;;;;23.26;53.13;98637.60;218680;1254;139503;-70
2023/08/07 11:22:19;;;;;;;1.70;1.40;;;;;;;23.03;52.55;98643.02;218093;1258;138800;-69
2023/08/07 11:27:25;;;;;;;3.10;1.70;;;;;;;23.02;52.61;98639.35;220616;1254;139454;-68
2023/08/07 11:32:29;;;;;;;3.40;1.50;;;;;;;23.33;52.47;98625.48;220754;1254;140553;-70
2023/08/07 11:37:34;;;;;;;3.20;1.70;;;;;;;23.47;52.67;98619.89;220804;1254;140264;-67
2023/08/07 11:42:38;;;;;;;1.60;1.50;;;;;;;23.92;52.70;98622.19;220694;1254;139332;-70
2023/08/07 11:47:43;;;;;;;2.40;2.00;;;;;;;23.61;51.38;98632.48;220687;1254;139570;-68
2023/08/07 11:52:49;;;;;;;2.00;1.80;;;;;;;22.90;50.71;98642.38;217981;1254;139333;-67
2023/08/07 11:57:55;;;;;;;4.00;2.00;;;;;;;22.26;51.17;98643.16;219624;1258;139552;-68
2023/08/07 12:03:01;;;;;;;3.20;1.90;;;;;;;22.06;51.55;98640.86;218495;1254;139933;-67
2023/08/07 12:08:07;;;;;;;3.40;2.00;;;;;;;22.37;52.48;98639.64;218270;1254;139565;-69
2023/08/07 12:13:16;;;;;;;1.90;1.80;;;;;;;22.81;52.75;98634.81;218994;1254;139119;-68
2023/08/07 12:18:24;;;;;;;2.70;2.10;;;;;;;22.60;52.00;98632.62;218175;1254;139027;-67
2023/08/07 12:23:29;;;;;;;2.40;1.40;;;;;;;22.29;51.80;98635.10;217915;1254;139222;-67
2023/08/07 12:28:36;;;;;;;3.10;2.10;;;;;;;21.96;51.95;98643.61;218065;1259;140029;-67
2023/08/07 12:33:41;;;;;;;3.30;2.00;;;;;;;22.02;52.32;98638.00;218725;1254;138832;-68
2023/08/07 12:38:47;;;;;;;2.70;1.90;;;;;;;22.58;52.82;98637.83;218817;1254;139828;-67
2023/08/07 12:43:53;;;;;;;1.70;1.50;;;;;;;22.78;52.00;98645.23;218084;1260;139206;-67
2023/08/07 12:48:58;;;;;;;4.10;1.30;;;;;;;22.86;51.71;98640.89;219439;1254;139731;-68
2023/08/07 12:54:04;;;;;;;2.30;1.70;;;;;;;22.74;50.81;98640.17;218436;1257;139928;-67
2023/08/07 12:59:09;;;;;;;1.60;1.40;;;;;;;22.85;50.39;98646.41;219250;1254;139549;-68
2023/08/07 13:04:15;;;;;;;1.40;1.10;;;;;;;23.23;49.59;98648.95;218000;1257;139044;-68
2023/08/07 13:09:20;;;;;;;;;;;;;;;23.30;49.02;98652.09;218006;1257;138772;-69
2023/08/07 13:14:24;;;;;;;2.60;2.10;;;;;;;23.22;48.44;98660.12;219117;1257;127811;-67
2023/08/07 13:19:32;;;;;;;1.80;1.60;;;;;;;23.10;48.42;98659.23;218724;1257;140224;-67
2023/08/07 13:24:36;;;;;;;2.60;1.30;;;;;;;23.08;48.80;98662.83;220628;1256;139737;-67
2023/08/07 13:29:44;;;;;;;2.10;1.40;;;;;;;22.78;48.18;98672.98;220497;1254;139476;-68
2023/08/07 13:34:47;;;;;;;2.20;1.60;;;;;;;22.36;48.49;98677.21;219633;1254;139495;-66
2023/08/07 13:39:53;;;;;;;1.50;1.40;;;;;;;21.94;48.64;98683.63;220597;1257;139662;-67
2023/08/07 13:44:56;;;;;;;3.20;2.00;;;;;;;21.60;49.38;98687.75;220375;1255;140331;-66
2023/08/07 13:50:01;;;;;;;2.50;1.70;;;;;;;21.44;49.78;98690.98;219541;1254;140246;-67
2023/08/07 13:55:06;;;;;;;4.40;1.60;;;;;;;21.71;49.83;98690.94;218221;1254;139678;-66
2023/08/07 14:00:11;;;;;;;1.40;1.40;;;;;;;22.03;49.50;98698.81;218831;1254;139048;-66
2023/08/07 14:05:15;;;;;;;2.60;1.50;;;;;;;22.08;49.37;98707.98;218657;1254;138724;-67
2023/08/07 14:10:19;;;;;;;1.80;1.50;;;;;;;22.21;49.63;98707.89;217969;1254;139603;-69
2023/08/07 14:15:24;;;;;;;1.60;1.50;;;;;;;22.45;49.19;98717.86;218682;1254;153613;-69
2023/08/07 14:20:28;;;;;;;1.60;1.50;;;;;;;22.34;48.40;98726.65;218023;1254;139739;-69
2023/08/07 14:25:34;;;;;;;3.70;1.50;;;;;;;22.29;48.10;98731.15;218093;1254;138775;-69
2023/08/07 14:30:39;;;;;;;2.90;1.90;;;;;;;22.35;47.87;98734.04;218853;1254;139671;-69
2023/08/07 14:35:43;;;;;;;2.80;1.70;;;;;;;22.19;47.52;98743.68;217730;1257;139842;-68
2023/08/07 14:40:47;;;;;;;1.50;1.40;;;;;;;21.83;47.08;98748.55;218144;1257;139045;-67
2023/08/07 14:45:50;;;;;;;2.00;1.70;;;;;;;21.65;47.36;98753.71;219126;1254;140917;-67
2023/08/07 14:50:56;;;;;;;3.30;1.40;;;;;;;21.40;47.26;98756.11;218901;1254;138846;-67
2023/08/07 14:55:59;;;;;;;2.00;1.90;;;;;;;21.07;47.40;98766.97;219025;1254;140533;-69
2023/08/07 15:01:03;;;;;;;1.80;1.50;;;;;;;20.77;47.66;98776.48;217434;1254;448276;-69
2023/08/07 15:06:10;;;;;;;2.50;2.10;;;;;;;20.50;48.03;98777.56;219182;1254;139515;-68
2023/08/07 15:11:17;;;;;;;2.00;1.80;;;;;;;20.23;48.38;98788.70;217911;1254;139410;-67
2023/08/07 15:16:21;;;;;;;4.40;2.90;;;;;;;20.00;48.90;98798.98;220774;1254;139423;-67
2023/08/07 15:21:24;;;;;;;2.20;2.00;;;;;;;19.81;49.48;98809.11;220897;1254;140108;-68
2023/08/07 15:26:28;;;;;;;3.30;2.30;;;;;;;19.70;50.21;98816.92;220643;1254;139002;-69
2023/08/07 15:31:32;;;;;;;3.40;2.10;;;;;;;19.62;50.81;98816.93;220466;1254;139826;-68
2023/08/07 15:36:35;;;;;;;2.50;2.30;;;;;;;19.64;51.47;98822.63;220649;1257;139118;-67
2023/08/07 15:41:40;;;;;;;2.80;1.30;;;;;;;19.68;52.06;98823.09;220735;1254;139221;-67
2023/08/07 15:46:43;;;;;;;1.60;1.50;;;;;;;19.42;52.79;98803.73;218067;1257;139384;-65
2023/08/07 15:51:47;;;;;;;1.70;1.60;;;;;;;19.08;53.62;98814.56;217765;1254;138950;-68
2023/08/07 15:56:51;;;;;;;2.40;1.90;;;;;;;18.91;54.54;98823.36;217837;1259;139103;-66
2023/08/07 16:01:55;;;;;;;2.10;1.60;;;;;;;18.83;55.21;98817.90;218103;1254;138942;-66
2023/08/07 16:07:01;;;;;;;1.80;1.70;;;;;;;18.93;55.66;98811.16;218789;1255;139527;-67
2023/08/07 16:12:10;;;;;;;2.80;1.40;;;;;;;18.88;55.68;98811.80;218375;1258;140613;-69
2023/08/07 16:17:15;;;;;;;2.30;2.20;;;;;;;18.73;55.84;98814.22;218484;1257;139037;-67
2023/08/07 16:22:20;;;;;;;2.90;1.80;;;;;;;18.63;56.25;98820.73;218217;1256;138925;-66
2023/08/07 16:27:24;;;;;;;3.20;1.70;;;;;;;18.51;56.78;98814.24;218908;1254;139049;-67
2023/08/07 16:32:30;;;;;;;1.20;1.10;;;;;;;18.34;57.08;98807.92;218470;1256;139360;-66
2023/08/07 16:37:35;;;;;;;1.50;1.40;;;;;;;18.17;57.51;98818.44;217851;1257;138863;-66
2023/08/07 16:42:40;;;;;;;1.50;1.40;;;;;;;18.11;58.16;98817.31;219516;1256;140284;-68
2023/08/07 16:47:46;;;;;;;1.70;1.30;;;;;;;18.09;58.67;98824.98;217781;1254;139609;-67
2023/08/07 16:52:54;;;;;;;2.10;1.80;;;;;;;18.09;59.13;98827.13;217913;1254;139560;-66
2023/08/07 16:58:04;;;;;;;2.40;1.50;;;;;;;18.10;59.55;98832.88;219510;1254;139518;-68
2023/08/07 17:03:11;;;;;;;1.20;1.20;;;;;;;18.15;59.76;98829.91;219229;1258;138941;-66
2023/08/07 17:08:16;;;;;;;2.80;1.60;;;;;;;18.23;59.96;98827.84;220130;1254;139715;-66
2023/08/07 17:13:23;;;;;;;3.10;1.60;;;;;;;18.11;59.92;98824.32;220473;1255;139622;-67
2023/08/07 17:18:28;;;;;;;1.70;1.30;;;;;;;18.02;60.00;98828.64;220636;1254;139815;-66
2023/08/07 17:23:33;;;;;;;1.10;1.00;;;;;;;17.95;60.10;98845.34;220622;1254;139639;-67
2023/08/07 17:28:42;;;;;;;1.60;1.20;;;;;;;17.78;60.38;98850.16;219323;1254;138396;-66
2023/08/07 17:33:51;;;;;;;4.00;1.70;;;;;;;17.59;60.67;98861.23;218703;1254;139092;-66
2023/08/07 17:38:57;;;;;;;1.50;1.30;;;;;;;17.33;61.03;98870.92;219101;1254;139945;-65
2023/08/07 17:44:04;;;;;;;3.20;1.80;;;;;;;17.19;61.39;98884.55;220203;1254;138865;-67
2023/08/07 17:49:08;;;;;;;1.80;1.20;;;;;;;17.00;61.76;98896.86;218060;1254;140599;-68
2023/08/07 17:54:12;;;;;;;3.40;1.40;;;;;;;16.76;62.17;98904.55;218058;1258;141053;-68
2023/08/07 17:59:16;;;;;;;7.70;1.10;;;;;;;16.51;62.46;98910.52;218571;1259;139660;-70
2023/08/07 18:04:20;;;;;;;2.50;1.60;;;;;;;16.31;63.16;98913.27;218465;1254;236555;-69
2023/08/07 18:09:24;;;;;;;5.80;1.90;;;;;;;16.11;63.59;98920.88;217892;1255;140382;-69
2023/08/07 18:14:28;;;;;;;1.30;1.20;;;;;;;16.00;63.95;98919.63;217787;1258;140635;-70
2023/08/07 18:19:32;;;;;;;2.60;0.90;;;;;;;15.90;64.42;98922.61;217886;1254;139726;-69
2023/08/07 18:24:36;;;;;;;2.10;1.20;;;;;;;15.79;64.76;98927.86;217738;1258;139467;-68
2023/08/07 18:29:41;;;;;;;1.90;1.20;;;;;;;15.70;65.10;98931.95;217930;1254;139986;-67
2023/08/07 18:34:45;;;;;;;2.10;1.80;;;;;;;15.61;65.41;98931.58;218903;1254;139690;-70
2023/08/07 18:39:50;;;;;;;5.70;1.80;;;;;;;15.53;65.70;98937.14;219373;1254;139900;-70
2023/08/07 18:45:01;;;;;;;0.90;0.90;;;;;;;15.43;66.27;98936.38;219369;1254;141945;-70
2023/08/07 18:50:05;;;;;;;1.40;1.30;;;;;;;15.38;66.69;98941.73;219911;1254;139675;-67
2023/08/07 18:55:09;;;;;;;4.70;1.80;;;;;;;15.34;67.10;98938.66;218320;1258;139561;-65
2023/08/07 19:00:14;;;;;;;2.70;1.60;;;;;;;15.30;67.76;98941.45;218516;1254;141045;-68
2023/08/07 19:05:19;;;;;;;2.10;1.90;;;;;;;15.19;68.64;98935.88;217936;1254;140418;-66
2023/08/07 19:10:23;;;;;;;2.10;1.70;;;;;;;15.10;69.41;98934.52;219316;1254;140403;-66
2023/08/07 19:15:29;;;;;;;1.40;1.30;;;;;;;15.05;70.08;98942.73;220556;1254;141953;-66
2023/08/07 19:20:33;;;;;;;1.70;1.50;;;;;;;14.99;70.92;98939.08;220767;1254;140606;-66
2023/08/07 19:25:38;;;;;;;3.70;2.00;;;;;;;14.96;71.61;98942.71;220448;1254;140166;-66
2023/08/07 19:30:43;;;;;;;1.80;1.50;;;;;;;15.00;72.04;98948.14;220400;1254;140468;-66
2023/08/07 19:36:06;;;;;;;2.00;1.60;;;;;;;15.00;72.51;98947.59;219010;1256;139997;-69
2023/08/07 19:41:12;;;;;;;3.70;1.40;;;;;;;15.03;72.92;98956.85;219062;1255;140097;-67
2023/08/07 19:46:17;;;;;;;1.20;1.20;;;;;;;15.07;73.30;98958.75;219217;1254;139352;-67
2023/08/07 19:51:21;;;;;;;1.90;1.60;;;;;;;15.07;73.59;98958.10;219125;1254;140255;-68
2023/08/07 19:56:25;;;;;;;3.70;1.50;;;;;;;15.06;73.99;98955.48;218128;1254;139944;-65
2023/08/07 20:01:29;;;;;;;2.30;2.10;;;;;;;15.04;74.25;98963.34;217868;1256;139719;-66
2023/08/07 20:06:34;;;;;;;2.50;1.50;;;;;;;15.01;74.50;98965.34;217773;1256;139741;-71
2023/08/07 20:11:42;;;;;;;1.90;1.60;;;;;;;14.99;75.10;98963.44;217949;1257;139379;-66
2023/08/07 20:16:49;;;;;;;1.90;1.80;;;;;;;14.96;75.22;98966.70;218655;1255;139770;-67
2023/08/07 20:21:53;;;;;;;1.60;1.50;;;;;;;14.91;75.54;98970.98;217986;1257;139744;-69
2023/08/07 20:26:58;;;;;;;3.10;1.80;;;;;;;14.89;75.88;98971.96;218624;1254;139709;-66
2023/08/07 20:32:02;;;;;;;1.60;1.50;;;;;;;14.83;76.01;98969.92;218132;1258;140513;-69
2023/08/07 20:37:07;;;;;;;1.80;1.60;;;;;;;14.78;76.28;98973.92;217760;1254;140186;-70
2023/08/07 20:42:12;;;;;;;2.50;1.40;;;;;;;14.76;76.66;98978.06;219784;1258;140963;-69
2023/08/07 20:47:17;;;;;;;1.60;1.40;;;;;;;14.76;76.80;98981.72;218004;1258;140223;-66
2023/08/07 20:52:22;;;;;;;2.50;1.90;;;;;;;14.76;77.24;98981.98;220044;1255;140054;-67
2023/08/07 20:57:26;;;;;;;1.80;1.20;;;;;;;14.76;77.58;98981.56;219066;1258;141071;-67
2023/08/07 21:02:30;;;;;;;2.10;1.60;;;;;;;14.79;77.82;98981.74;218311;1254;140962;-66
2023/08/07 21:07:35;;;;;;;4.60;2.50;;;;;;;14.80;78.01;98985.50;220773;1254;141747;-70
2023/08/07 21:12:39;;;;;;;2.20;1.60;;;;;;;14.82;78.26;98984.90;220717;1254;142581;-70
2023/08/07 21:17:43;;;;;;;1.50;1.20;;;;;;;14.87;78.28;98989.16;220704;1254;143280;-70
2023/08/07 21:22:47;;;;;;;2.40;1.60;;;;;;;14.92;78.24;98988.96;220731;1254;140600;-70
2023/08/07 21:27:51;;;;;;;4.70;2.00;;;;;;;14.97;78.15;98995.20;220741;1254;141306;-69
2023/08/07 21:32:55;;;;;;;3.70;1.70;;;;;;;14.99;78.08;98991.45;218651;1254;140736;-68
2023/08/07 21:37:58;;;;;;;2.60;1.70;;;;;;;15.01;77.57;99003.84;217997;1257;140676;-70
2023/08/07 21:43:02;;;;;;;4.50;2.00;;;;;;;15.03;77.33;99007.15;218289;1254;140780;-69
2023/08/07 21:48:06;;;;;;;2.30;1.20;;;;;;;15.05;77.09;99013.52;219222;1254;140864;-70
2023/08/07 21:53:10;;;;;;;5.20;2.10;;;;;;;15.07;76.80;99018.51;218302;1254;140772;-72
2023/08/07 21:58:16;;;;;;;3.50;1.40;;;;;;;15.04;76.55;99023.52;218332;1258;141129;-67
2023/08/07 22:03:20;;;;;;;2.50;1.70;;;;;;;14.98;76.33;99028.67;217855;1254;139598;-68
2023/08/07 22:08:24;;;;;;;10.30;2.00;;;;;;;14.84;76.38;99037.41;218223;1257;140844;-67
2023/08/07 22:13:29;;;;;;;2.40;1.20;;;;;;;14.74;76.59;99034.04;217794;1259;139945;-67
2023/08/07 22:18:33;;;;;;;7.60;1.40;;;;;;;14.64;76.68;99040.88;218098;1258;140370;-67
2023/08/07 22:23:38;;;;;;;2.20;1.50;;;;;;;14.59;76.92;99047.79;218245;1257;141355;-68
2023/08/07 22:28:42;;;;;;;5.60;1.90;;;;;;;14.53;76.97;99049.75;217964;1254;139879;-68
2023/08/07 22:33:47;;;;;;;1.40;1.30;;;;;;;14.46;77.14;99052.40;219181;1254;140687;-67
2023/08/07 22:38:54;;;;;;;4.30;1.20;;;;;;;14.39;77.13;99054.45;218140;1254;139798;-69
2023/08/07 22:44:01;;;;;;;2.90;1.60;;;;;;;14.34;77.28;99061.09;217625;1259;140023;-69
2023/08/07 22:49:06;;;;;;;2.80;1.50;;;;;;;14.28;77.38;99055.10;219888;1254;140252;-68
2023/08/07 22:54:11;;;;;;;3.30;1.40;;;;;;;14.25;77.53;99055.87;218970;1257;140096;-69
2023/08/07 22:59:16;;;;;;;2.50;1.50;;;;;;;14.25;77.51;99060.59;219931;1254;141319;-68
2023/08/07 23:04:20;;;;;;;2.30;1.30;;;;;;;14.26;77.51;99056.08;220743;1254;140805;-67
2023/08/07 23:09:26;;;;;;;1.90;1.50;;;;;;;14.24;77.27;99060.95;219953;1254;140515;-68
2023/08/07 23:14:31;;;;;;;3.50;1.90;;;;;;;14.24;77.13;99065.73;220730;1254;140049;-69
2023/08/07 23:19:35;;;;;;;2.80;1.90;;;;;;;14.20;76.94;99078.45;218393;1258;140968;-67
2023/08/07 23:24:40;;;;;;;2.80;1.50;;;;;;;14.18;77.02;99084.56;217761;1258;140969;-68